Time;durP1;ratioP1;P1;durP2;ratioP2;P2;SDS_P1;SDS_P2;PMS_P1;PMS_P2;Temp;Humidity;BMP_temperature;BMP_pressure;BME280_temperature;BME280_humidity;BME280_pressure;Samples;Min_cycle;Max_cycle;Signal;HPM_P1;HPM_P2
2022/06/27 00:00:49;;;;;;;6.63;5.93;;;26.40;41.50;;;;;;5072505;28;20410;-48
2022/06/27 00:03:15;;;;;;;8.90;6.40;;;26.40;41.30;;;;;;5072661;28;20529;-46
2022/06/27 00:05:41;;;;;;;6.60;5.30;;;26.40;41.30;;;;;;5072365;28;20411;-46
2022/06/27 00:08:07;;;;;;;8.03;5.60;;;26.40;41.40;;;;;;5072347;28;20419;-47
2022/06/27 00:10:33;;;;;;;7.80;5.50;;;26.40;41.10;;;;;;5072253;28;20921;-47
2022/06/27 00:12:59;;;;;;;8.37;5.73;;;26.40;41.50;;;;;;5072319;28;20226;-47
2022/06/27 00:15:26;;;;;;;6.63;5.93;;;26.40;41.60;;;;;;5072160;28;20414;-48
2022/06/27 00:17:52;;;;;;;6.23;5.30;;;26.30;41.80;;;;;;5072155;28;20447;-47
2022/06/27 00:20:18;;;;;;;5.90;5.13;;;26.30;41.70;;;;;;5072183;28;20456;-47
2022/06/27 00:22:44;;;;;;;6.57;5.90;;;26.30;41.90;;;;;;5072064;28;20446;-46
2022/06/27 00:25:10;;;;;;;7.83;5.97;;;26.30;41.90;;;;;;5072081;28;20200;-48
2022/06/27 00:27:36;;;;;;;6.87;6.17;;;26.30;42.00;;;;;;5071987;28;20327;-47
2022/06/27 00:30:03;;;;;;;5.77;5.23;;;26.20;42.00;;;;;;5072564;28;20435;-49
2022/06/27 00:32:29;;;;;;;7.90;6.33;;;26.20;42.30;;;;;;5070517;28;20438;-47
2022/06/27 00:34:55;;;;;;;6.43;5.83;;;26.20;42.50;;;;;;5072903;28;20505;-48
2022/06/27 00:37:21;;;;;;;6.67;6.00;;;26.10;42.40;;;;;;5072436;28;20430;-48
2022/06/27 00:39:47;;;;;;;7.17;6.47;;;26.00;42.60;;;;;;5072037;28;20188;-48
2022/06/27 00:42:13;;;;;;;5.67;5.10;;;26.00;42.70;;;;;;5072635;28;20456;-50
2022/06/27 00:44:41;;;;;;;6.77;6.10;;;26.00;42.60;;;;;;5072280;28;20169;-46
2022/06/27 00:47:10;;;;;;;7.43;6.60;;;26.00;42.70;;;;;;5071698;28;20494;-49
2022/06/27 00:49:36;;;;;;;6.77;6.07;;;26.00;42.80;;;;;;5072330;28;20971;-48
2022/06/27 00:52:07;;;;;;;6.27;5.60;;;26.00;43.10;;;;;;5073272;28;20407;-48
2022/06/27 00:54:35;;;;;;;22.90;6.10;;;25.90;42.70;;;;;;5072113;28;20420;-46
2022/06/27 00:57:01;;;;;;;9.83;6.00;;;25.90;42.70;;;;;;5070345;28;20466;-47
2022/06/27 00:59:27;;;;;;;7.87;6.23;;;25.90;42.60;;;;;;5072664;28;20406;-47
2022/06/27 01:01:53;;;;;;;7.50;6.63;;;25.90;43.40;;;;;;5072611;28;20502;-49
2022/06/27 01:04:20;;;;;;;6.70;6.10;;;25.90;42.80;;;;;;5072616;28;20234;-48
2022/06/27 01:06:51;;;;;;;7.17;6.33;;;25.80;43.40;;;;;;5072729;28;20842;-46
2022/06/27 01:09:21;;;;;;;8.43;5.80;;;25.80;42.80;;;;;;5072268;28;20493;-47
2022/06/27 01:11:48;;;;;;;7.13;5.87;;;25.80;42.90;;;;;;5071734;28;20437;-46
2022/06/27 01:14:15;;;;;;;8.97;6.50;;;25.80;43.00;;;;;;5071754;28;20448;-48
2022/06/27 01:16:41;;;;;;;6.63;6.03;;;25.60;43.10;;;;;;5072838;28;20417;-46
2022/06/27 01:19:13;;;;;;;6.93;6.30;;;25.60;43.30;;;;;;5073043;28;20902;-46
2022/06/27 01:21:50;;;;;;;7.03;6.33;;;25.50;43.40;;;;;;5073082;28;20406;-47
2022/06/27 01:24:17;;;;;;;8.00;7.07;;;25.50;43.70;;;;;;5072412;28;20461;-48
2022/06/27 01:26:44;;;;;;;10.00;6.50;;;25.40;43.80;;;;;;5072137;28;20478;-49
2022/06/27 01:29:11;;;;;;;7.40;6.70;;;25.40;43.90;;;;;;5072723;28;20395;-48
2022/06/27 01:31:38;;;;;;;7.30;6.60;;;25.40;43.90;;;;;;5071805;28;20463;-46
2022/06/27 01:34:04;;;;;;;8.27;6.00;;;25.30;44.10;;;;;;5070237;28;21016;-48
2022/06/27 01:36:42;;;;;;;8.57;7.17;;;25.30;44.50;;;;;;5071930;28;20399;-47
2022/06/27 01:39:17;;;;;;;7.80;5.87;;;25.30;43.90;;;;;;5072055;28;20371;-46
2022/06/27 01:41:51;;;;;;;7.27;6.20;;;25.20;44.00;;;;;;5071419;28;20392;-47
2022/06/27 01:44:17;;;;;;;7.63;6.93;;;25.20;44.10;;;;;;5075417;28;20403;-47
2022/06/27 01:46:55;;;;;;;7.07;5.73;;;25.20;44.30;;;;;;5074718;28;20395;-49
2022/06/27 01:49:21;;;;;;;6.50;5.63;;;25.20;44.20;;;;;;5075367;28;20414;-45
2022/06/27 01:51:49;;;;;;;9.53;6.77;;;25.10;44.30;;;;;;5075512;28;20395;-47
2022/06/27 01:54:17;;;;;;;7.60;6.83;;;25.10;44.30;;;;;;5076029;28;20399;-46
2022/06/27 01:56:46;;;;;;;7.50;6.80;;;25.10;44.70;;;;;;5075422;28;20403;-47
2022/06/27 01:59:14;;;;;;;7.13;6.43;;;25.00;44.80;;;;;;5075291;28;20399;-47
2022/06/27 02:01:44;;;;;;;7.43;6.73;;;25.00;45.00;;;;;;5075235;28;20411;-46
2022/06/27 02:04:12;;;;;;;7.80;7.00;;;25.00;44.80;;;;;;5074641;28;20418;-47
2022/06/27 02:06:39;;;;;;;7.50;6.80;;;25.00;44.80;;;;;;5074660;28;20406;-45
2022/06/27 02:09:07;;;;;;;6.80;6.20;;;25.00;44.80;;;;;;5074623;28;20403;-47
2022/06/27 02:11:33;;;;;;;7.33;6.60;;;24.90;44.80;;;;;;5074579;28;20426;-46
2022/06/27 02:13:59;;;;;;;8.93;6.53;;;24.90;44.80;;;;;;5074615;28;20812;-46
2022/06/27 02:16:25;;;;;;;7.67;6.87;;;24.90;44.80;;;;;;5074391;28;20430;-46
2022/06/27 02:18:52;;;;;;;7.60;6.73;;;24.90;44.80;;;;;;5073033;28;20489;-46
2022/06/27 02:21:20;;;;;;;7.50;6.77;;;24.80;45.10;;;;;;5074907;28;20411;-47
2022/06/27 02:23:47;;;;;;;7.53;6.83;;;24.80;45.20;;;;;;5074138;28;20946;-48
2022/06/27 02:26:14;;;;;;;7.87;6.70;;;24.70;45.30;;;;;;5074765;28;20989;-47
2022/06/27 02:28:41;;;;;;;6.77;6.17;;;24.70;45.40;;;;;;5093237;22;20521;-44
2022/06/27 02:31:09;;;;;;;6.97;6.27;;;24.70;45.30;;;;;;5086203;28;20407;-45
2022/06/27 02:33:41;;;;;;;8.60;7.83;;;24.60;45.50;;;;;;5094325;28;20410;-45
2022/06/27 02:36:10;;;;;;;7.87;7.10;;;24.60;45.50;;;;;;5094285;28;20402;-45
2022/06/27 02:38:39;;;;;;;7.33;6.63;;;24.50;46.30;;;;;;5107237;28;20413;-45
2022/06/27 02:41:09;;;;;;;8.23;7.43;;;24.50;45.60;;;;;;5114595;28;20404;-45
2022/06/27 02:43:37;;;;;;;7.10;6.20;;;24.50;45.70;;;;;;5114816;28;20484;-44
2022/06/27 02:46:04;;;;;;;8.17;7.40;;;24.50;45.80;;;;;;5114551;28;20436;-45
2022/06/27 02:48:32;;;;;;;9.87;7.60;;;24.40;45.90;;;;;;5114443;28;20869;-45
2022/06/27 02:51:05;;;;;;;8.87;7.97;;;24.40;45.70;;;;;;5114699;28;20408;-45
2022/06/27 02:53:41;;;;;;;11.30;7.20;;;24.40;45.80;;;;;;5114330;28;20409;-45
2022/06/27 02:56:10;;;;;;;8.00;7.10;;;24.40;45.70;;;;;;5113670;28;20428;-44
2022/06/27 02:58:53;;;;;;;9.03;8.20;;;24.40;45.60;;;;;;5114146;28;20515;-44
2022/06/27 03:01:21;;;;;;;7.40;6.60;;;24.40;45.60;;;;;;5114261;28;20397;-45
2022/06/27 03:03:49;;;;;;;8.77;8.00;;;24.40;45.80;;;;;;5114096;28;20445;-45
2022/06/27 03:06:15;;;;;;;8.60;7.70;;;24.40;46.10;;;;;;5114184;28;20461;-45
2022/06/27 03:08:46;;;;;;;7.60;6.80;;;24.30;46.10;;;;;;5113959;27;20825;-45
2022/06/27 03:11:15;;;;;;;9.67;8.63;;;24.30;46.20;;;;;;5114089;28;20729;-45
2022/06/27 03:13:42;;;;;;;9.17;8.27;;;24.30;46.30;;;;;;5114155;28;20409;-45
2022/06/27 03:16:09;;;;;;;10.93;7.87;;;24.30;46.30;;;;;;5113816;28;20402;-44
2022/06/27 03:18:35;;;;;;;8.93;8.13;;;24.20;46.50;;;;;;5113854;28;20443;-45
2022/06/27 03:21:01;;;;;;;12.63;8.30;;;24.20;46.70;;;;;;5113809;28;20409;-45
2022/06/27 03:23:27;;;;;;;9.63;7.60;;;24.20;46.70;;;;;;5113608;28;20468;-44
2022/06/27 03:25:54;;;;;;;9.03;8.20;;;24.20;46.80;;;;;;5113897;27;20408;-44
2022/06/27 03:28:20;;;;;;;7.00;6.30;;;24.20;46.90;;;;;;5113552;28;20444;-44
2022/06/27 03:30:46;;;;;;;9.00;7.90;;;24.20;46.70;;;;;;5113646;28;20442;-44
2022/06/27 03:33:13;;;;;;;9.73;8.73;;;24.30;47.20;;;;;;5113622;28;20405;-45
2022/06/27 03:35:39;;;;;;;8.30;7.10;;;24.40;46.90;;;;;;5113331;28;20401;-45
2022/06/27 03:38:05;;;;;;;8.20;7.40;;;24.40;46.80;;;;;;5113543;28;20460;-45
2022/06/27 03:40:31;;;;;;;8.27;7.47;;;24.50;46.90;;;;;;5113456;28;20441;-45
2022/06/27 03:42:57;;;;;;;9.90;6.70;;;24.60;46.90;;;;;;5113520;28;20202;-45
2022/06/27 03:45:23;;;;;;;9.17;7.80;;;24.60;47.00;;;;;;5113450;28;20623;-45
2022/06/27 03:48:07;;;;;;;8.37;7.20;;;24.60;47.30;;;;;;5113007;28;20237;-45
2022/06/27 03:50:34;;;;;;;8.93;7.63;;;24.70;47.50;;;;;;5113308;28;20384;-44
2022/06/27 03:53:00;;;;;;;15.30;7.50;;;24.60;47.20;;;;;;5113109;28;20420;-45
2022/06/27 03:55:26;;;;;;;9.63;7.63;;;24.70;47.00;;;;;;5113102;28;20401;-44
2022/06/27 03:58:02;;;;;;;7.90;7.20;;;24.80;47.10;;;;;;5113024;27;20788;-45
2022/06/27 04:00:32;;;;;;;9.00;8.10;;;24.80;47.20;;;;;;5113200;28;20400;-45
2022/06/27 04:02:59;;;;;;;8.10;7.30;;;24.90;47.10;;;;;;5112992;28;20452;-45
2022/06/27 04:05:25;;;;;;;8.67;7.80;;;25.00;47.20;;;;;;5112925;28;20461;-45
2022/06/27 04:07:51;;;;;;;7.80;7.00;;;25.00;47.10;;;;;;5112287;28;20417;-44
2022/06/27 04:10:17;;;;;;;9.30;8.40;;;25.10;46.90;;;;;;5112905;28;20404;-45
2022/06/27 04:12:43;;;;;;;8.53;7.63;;;25.10;46.60;;;;;;5112937;28;20910;-45
2022/06/27 04:15:10;;;;;;;7.90;7.10;;;25.30;46.50;;;;;;5112874;28;20167;-44
2022/06/27 04:17:36;;;;;;;9.57;7.20;;;25.30;46.30;;;;;;5112457;28;20183;-44
2022/06/27 04:20:02;;;;;;;10.90;7.03;;;25.40;46.10;;;;;;5112738;28;20980;-45
2022/06/27 04:22:28;;;;;;;7.90;7.10;;;25.50;45.80;;;;;;5112538;28;20449;-45
2022/06/27 04:24:55;;;;;;;9.17;6.93;;;25.50;45.80;;;;;;5112636;28;20887;-45
2022/06/27 04:27:21;;;;;;;8.03;6.97;;;25.60;45.80;;;;;;5112289;28;20404;-45
2022/06/27 04:29:50;;;;;;;8.60;6.50;;;25.70;45.70;;;;;;5112796;28;20998;-45
2022/06/27 04:32:18;;;;;;;6.90;6.30;;;25.70;45.50;;;;;;5112808;28;20397;-45
2022/06/27 04:34:44;;;;;;;8.67;7.87;;;25.80;45.50;;;;;;5112849;28;20837;-45
2022/06/27 04:37:11;;;;;;;7.63;6.80;;;25.90;45.60;;;;;;5112239;28;20904;-45
2022/06/27 04:39:37;;;;;;;8.43;7.40;;;25.90;45.50;;;;;;5112478;28;20409;-45
2022/06/27 04:42:04;;;;;;;8.53;7.67;;;26.00;45.60;;;;;;5112408;28;20926;-45
2022/06/27 04:44:30;;;;;;;7.23;6.53;;;26.10;45.40;;;;;;5112560;28;20504;-45
2022/06/27 04:46:56;;;;;;;8.30;7.47;;;26.20;45.20;;;;;;5112163;28;20412;-45
2022/06/27 04:49:22;;;;;;;7.67;6.87;;;26.20;45.00;;;;;;5112368;28;20421;-45
2022/06/27 04:51:51;;;;;;;8.53;7.70;;;26.30;45.00;;;;;;5112323;28;20916;-44
2022/06/27 04:54:18;;;;;;;7.40;6.70;;;26.40;45.00;;;;;;5112531;28;20462;-44
2022/06/27 04:56:45;;;;;;;8.33;7.17;;;26.50;44.90;;;;;;5112236;28;20760;-45
2022/06/27 04:59:11;;;;;;;7.73;6.93;;;26.60;44.50;;;;;;5112503;28;20425;-44
2022/06/27 05:01:38;;;;;;;8.00;7.20;;;26.70;44.40;;;;;;5112308;28;20408;-45
2022/06/27 05:04:04;;;;;;;7.60;6.80;;;26.70;44.40;;;;;;5112326;28;20444;-45
2022/06/27 05:06:30;;;;;;;6.40;5.80;;;26.80;44.40;;;;;;5112041;28;20957;-44
2022/06/27 05:08:56;;;;;;;8.10;7.30;;;26.90;44.20;;;;;;5112473;28;20781;-45
2022/06/27 05:11:22;;;;;;;7.97;7.17;;;27.00;44.70;;;;;;5110962;28;20943;-44
2022/06/27 05:13:48;;;;;;;6.70;6.00;;;27.00;44.60;;;;;;5112139;28;20892;-44
2022/06/27 05:16:16;;;;;;;7.77;7.07;;;27.00;44.10;;;;;;5112025;28;20415;-44
2022/06/27 05:18:43;;;;;;;7.27;6.57;;;27.10;44.10;;;;;;5115122;28;20435;-44
2022/06/27 05:21:09;;;;;;;7.50;6.37;;;27.20;44.10;;;;;;5116376;28;20462;-45
2022/06/27 05:23:37;;;;;;;7.30;6.60;;;27.20;43.90;;;;;;5116089;28;20452;-45
2022/06/27 05:26:07;;;;;;;6.30;5.70;;;27.20;43.80;;;;;;5116051;28;20405;-45
2022/06/27 05:28:33;;;;;;;7.60;6.80;;;27.30;43.70;;;;;;5115735;28;21000;-44
2022/06/27 05:30:59;;;;;;;6.90;6.20;;;27.30;43.80;;;;;;5116267;28;20401;-45
2022/06/27 05:33:25;;;;;;;7.30;6.20;;;27.40;43.40;;;;;;5115843;28;21002;-44
2022/06/27 05:35:52;;;;;;;6.50;5.90;;;27.50;43.40;;;;;;5115800;28;20412;-45
2022/06/27 05:38:18;;;;;;;6.70;6.00;;;27.50;43.20;;;;;;5115832;28;20193;-45
2022/06/27 05:40:45;;;;;;;7.40;6.70;;;27.60;43.10;;;;;;5115733;28;20828;-44
2022/06/27 05:43:15;;;;;;;7.27;6.40;;;27.70;43.00;;;;;;5115538;28;20463;-45
2022/06/27 05:45:41;;;;;;;5.57;5.07;;;27.80;42.70;;;;;;5115647;28;20397;-45
2022/06/27 05:48:07;;;;;;;6.60;6.00;;;27.80;42.60;;;;;;5115449;27;20464;-45
2022/06/27 05:50:33;;;;;;;6.33;5.73;;;27.90;42.30;;;;;;5115822;28;20412;-45
2022/06/27 05:53:01;;;;;;;6.10;5.00;;;27.90;42.20;;;;;;5115359;28;20413;-45
2022/06/27 05:55:28;;;;;;;6.13;5.57;;;28.00;42.60;;;;;;5115411;28;20874;-45
2022/06/27 05:57:57;;;;;;;7.20;6.23;;;28.00;42.70;;;;;;5115111;28;20436;-44
2022/06/27 06:00:24;;;;;;;6.47;5.87;;;28.10;42.40;;;;;;5115518;27;20416;-45
2022/06/27 06:02:52;;;;;;;6.67;6.07;;;28.20;42.60;;;;;;5115323;27;20455;-45
2022/06/27 06:05:18;;;;;;;6.27;5.67;;;28.20;42.60;;;;;;5115471;28;20730;-45
2022/06/27 06:07:45;;;;;;;6.10;5.60;;;28.30;43.10;;;;;;5115023;28;20409;-45
2022/06/27 06:10:12;;;;;;;7.00;6.30;;;28.50;42.20;;;;;;5115076;28;20201;-45
2022/06/27 06:12:38;;;;;;;5.30;4.80;;;28.50;42.50;;;;;;5115477;28;20437;-45
2022/06/27 06:15:04;;;;;;;6.37;5.30;;;28.70;42.40;;;;;;5115302;28;20409;-45
2022/06/27 06:17:34;;;;;;;6.33;5.10;;;28.80;42.20;;;;;;5114925;28;20429;-45
2022/06/27 06:20:01;;;;;;;8.80;5.07;;;28.90;41.80;;;;;;5115116;28;20425;-45
2022/06/27 06:22:27;;;;;;;6.30;5.70;;;29.10;42.50;;;;;;5114964;28;20472;-45
2022/06/27 06:24:53;;;;;;;6.23;5.63;;;29.20;42.20;;;;;;5114780;28;20899;-45
2022/06/27 06:27:22;;;;;;;6.13;5.53;;;29.30;41.90;;;;;;5114634;27;20805;-44
2022/06/27 06:29:48;;;;;;;6.20;4.50;;;29.40;41.70;;;;;;5114009;28;20566;-44
2022/06/27 06:32:15;;;;;;;4.63;4.23;;;29.50;41.30;;;;;;5114851;28;20412;-44
2022/06/27 06:34:42;;;;;;;4.53;3.80;;;29.60;41.20;;;;;;5114731;28;20454;-45
2022/06/27 06:37:09;;;;;;;8.90;4.50;;;29.80;41.00;;;;;;5114363;28;20965;-44
2022/06/27 06:39:36;;;;;;;4.70;4.30;;;29.90;40.40;;;;;;5114908;28;20432;-44
2022/06/27 06:42:03;;;;;;;4.87;4.43;;;30.00;40.40;;;;;;5114700;28;20513;-45
2022/06/27 06:44:30;;;;;;;4.80;4.40;;;30.10;40.10;;;;;;5114746;27;20415;-45
2022/06/27 06:46:56;;;;;;;5.77;4.43;;;30.30;39.90;;;;;;5114281;28;20412;-45
2022/06/27 06:49:23;;;;;;;5.03;4.50;;;30.40;39.00;;;;;;5114415;28;20437;-45
2022/06/27 06:51:49;;;;;;;4.53;4.13;;;30.50;38.80;;;;;;5114272;28;20409;-45
2022/06/27 06:54:17;;;;;;;4.13;3.73;;;30.50;38.50;;;;;;5114334;28;20840;-45
2022/06/27 06:56:46;;;;;;;4.20;3.60;;;30.70;37.70;;;;;;5114045;27;20417;-45
2022/06/27 06:59:12;;;;;;;3.93;3.53;;;30.80;37.00;;;;;;5114430;28;20442;-45
2022/06/27 07:01:39;;;;;;;4.37;3.37;;;30.90;36.40;;;;;;5114430;28;20417;-45
2022/06/27 07:04:05;;;;;;;3.90;3.40;;;31.10;36.70;;;;;;5114021;28;20993;-45
2022/06/27 07:06:32;;;;;;;4.00;3.47;;;31.20;36.00;;;;;;5113823;28;20413;-45
2022/06/27 07:08:59;;;;;;;4.13;3.40;;;31.30;35.90;;;;;;5114301;28;20427;-45
2022/06/27 07:11:31;;;;;;;3.57;3.27;;;31.40;35.30;;;;;;5114307;28;20409;-44
2022/06/27 07:13:58;;;;;;;4.90;3.87;;;31.40;35.40;;;;;;5114252;28;20389;-45
2022/06/27 07:16:25;;;;;;;5.93;3.00;;;31.50;34.50;;;;;;5113600;28;20405;-45
2022/06/27 07:18:55;;;;;;;3.83;3.47;;;31.60;33.80;;;;;;5113695;28;20483;-44
2022/06/27 07:21:22;;;;;;;4.57;3.63;;;31.60;33.10;;;;;;5113853;28;20496;-45
2022/06/27 07:23:50;;;;;;;3.93;2.90;;;31.70;34.90;;;;;;5113660;28;20449;-45
2022/06/27 07:26:17;;;;;;;4.90;3.63;;;31.70;33.20;;;;;;5113772;28;20457;-44
2022/06/27 07:28:44;;;;;;;3.83;3.43;;;31.70;34.10;;;;;;5113552;28;20455;-45
2022/06/27 07:31:12;;;;;;;4.30;3.90;;;31.80;32.30;;;;;;5113754;28;20413;-44
2022/06/27 07:33:54;;;;;;;3.63;3.07;;;31.80;33.40;;;;;;5113466;28;20916;-44
2022/06/27 07:36:22;;;;;;;4.00;3.33;;;31.90;34.10;;;;;;5113368;28;20395;-45
2022/06/27 07:38:49;;;;;;;4.07;3.67;;;32.00;33.90;;;;;;5113713;28;20508;-44
2022/06/27 07:41:19;;;;;;;4.23;3.83;;;32.10;33.70;;;;;;5113361;28;20408;-45
2022/06/27 07:43:46;;;;;;;4.33;3.80;;;32.10;32.70;;;;;;5113359;28;20447;-45
2022/06/27 07:46:15;;;;;;;3.80;3.40;;;32.20;33.70;;;;;;5113561;28;20419;-45
2022/06/27 07:48:41;;;;;;;3.97;3.40;;;32.20;33.40;;;;;;5113184;28;20425;-44
2022/06/27 07:51:09;;;;;;;3.77;3.13;;;32.30;33.60;;;;;;5113212;27;20408;-45
2022/06/27 07:53:35;;;;;;;3.40;3.10;;;32.50;33.70;;;;;;5113261;28;20419;-45
2022/06/27 07:56:03;;;;;;;3.90;3.00;;;32.60;33.20;;;;;;5112869;28;20512;-45
2022/06/27 07:58:35;;;;;;;3.43;2.53;;;32.70;32.50;;;;;;5112926;28;20421;-45
2022/06/27 08:01:07;;;;;;;4.00;2.90;;;32.90;32.70;;;;;;5113292;27;20412;-45
2022/06/27 08:03:36;;;;;;;3.20;2.87;;;32.90;32.60;;;;;;5113067;28;21240;-45
2022/06/27 08:06:18;;;;;;;3.90;2.73;;;33.10;32.30;;;;;;5112865;28;20409;-45
2022/06/27 08:08:50;;;;;;;3.20;2.90;;;33.20;31.00;;;;;;5112933;28;20417;-45
2022/06/27 08:11:22;;;;;;;2.90;2.40;;;33.20;31.80;;;;;;5113257;28;20397;-45
2022/06/27 08:13:50;;;;;;;3.37;2.90;;;33.20;30.70;;;;;;5112976;28;20389;-45
2022/06/27 08:16:18;;;;;;;2.70;2.23;;;33.30;30.50;;;;;;5112534;28;20792;-45
2022/06/27 08:18:47;;;;;;;2.80;2.40;;;33.40;30.30;;;;;;5112782;28;20429;-44
2022/06/27 08:21:19;;;;;;;3.40;2.30;;;33.50;30.90;;;;;;5112782;28;20412;-45
2022/06/27 08:23:46;;;;;;;3.10;2.40;;;33.60;30.30;;;;;;5112956;28;20452;-45
2022/06/27 08:26:12;;;;;;;3.13;2.50;;;33.70;30.00;;;;;;5112731;28;20409;-45
2022/06/27 08:28:40;;;;;;;3.37;2.10;;;33.70;29.40;;;;;;5112640;28;20440;-45
2022/06/27 08:31:07;;;;;;;2.20;1.77;;;33.80;29.60;;;;;;5112585;28;20397;-45
2022/06/27 08:33:34;;;;;;;2.47;2.00;;;33.90;28.30;;;;;;5112538;28;20901;-45
2022/06/27 08:36:02;;;;;;;2.77;2.00;;;34.00;29.20;;;;;;5112371;28;20394;-45
2022/06/27 08:38:29;;;;;;;3.10;2.63;;;33.90;28.00;;;;;;5112760;28;20450;-44
2022/06/27 08:40:56;;;;;;;3.17;1.97;;;33.90;28.70;;;;;;5112659;28;20405;-45
2022/06/27 08:43:23;;;;;;;3.83;1.80;;;34.10;29.80;;;;;;5112696;28;20444;-45
2022/06/27 08:45:51;;;;;;;2.57;2.20;;;34.30;29.10;;;;;;5112166;28;20805;-45
2022/06/27 08:48:17;;;;;;;2.63;2.40;;;34.20;28.00;;;;;;5112305;28;20425;-45
2022/06/27 08:50:45;;;;;;;2.13;1.87;;;34.40;29.20;;;;;;5112402;28;20987;-45
2022/06/27 08:53:16;;;;;;;2.97;2.50;;;34.50;27.70;;;;;;5114631;28;20484;-45
2022/06/27 08:55:47;;;;;;;3.47;2.40;;;34.50;28.20;;;;;;5116377;28;20461;-45
2022/06/27 08:58:14;;;;;;;2.67;2.07;;;34.60;28.10;;;;;;5116607;28;20430;-45
2022/06/27 09:00:45;;;;;;;3.60;2.00;;;34.60;27.20;;;;;;5116576;28;20416;-45
2022/06/27 09:03:21;;;;;;;2.77;2.00;;;34.70;27.30;;;;;;5116400;28;20540;-44
2022/06/27 09:05:58;;;;;;;2.07;1.60;;;34.70;26.90;;;;;;5116296;28;20475;-45
2022/06/27 09:08:48;;;;;;;2.57;1.80;;;34.80;27.40;;;;;;5116373;28;20942;-46
2022/06/27 09:11:31;;;;;;;3.77;2.50;;;34.90;26.70;;;;;;5116164;28;20419;-46
2022/06/27 09:13:57;;;;;;;2.80;2.00;;;34.90;26.00;;;;;;5114161;22;21063;-45
2022/06/27 09:16:24;;;;;;;3.87;2.10;;;34.90;26.40;;;;;;5095462;28;20406;-45
2022/06/27 09:18:50;;;;;;;1.90;1.63;;;34.90;26.90;;;;;;5095883;28;20953;-45
2022/06/27 09:21:17;;;;;;;4.77;2.30;;;35.10;27.40;;;;;;5095788;28;20402;-44
2022/06/27 09:23:58;;;;;;;3.37;2.27;;;35.20;26.80;;;;;;5095619;28;20468;-47
2022/06/27 09:26:29;;;;;;;1.97;1.50;;;35.30;26.90;;;;;;5095600;28;20412;-45
2022/06/27 09:29:00;;;;;;;2.33;2.10;;;35.30;26.60;;;;;;5095565;28;20456;-45
2022/06/27 09:31:30;;;;;;;1.80;1.40;;;35.40;26.20;;;;;;5095981;28;20413;-45
2022/06/27 09:34:21;;;;;;;2.40;2.20;;;35.50;24.80;;;;;;5095449;28;20483;-44
2022/06/27 09:36:50;;;;;;;3.40;2.20;;;35.60;25.50;;;;;;5090319;28;20504;-44
2022/06/27 09:39:29;;;;;;;2.37;1.97;;;35.60;26.00;;;;;;5095723;28;20402;-44
2022/06/27 09:42:01;;;;;;;3.23;1.90;;;35.70;26.60;;;;;;5095634;28;20408;-46
2022/06/27 09:44:34;;;;;;;2.13;1.87;;;35.60;26.00;;;;;;5095287;28;21126;-44
2022/06/27 09:47:08;;;;;;;2.30;1.90;;;35.50;26.10;;;;;;5095054;28;20901;-44
2022/06/27 09:49:38;;;;;;;4.17;2.40;;;35.30;26.00;;;;;;5095271;28;20868;-45
2022/06/27 09:52:08;;;;;;;2.27;1.90;;;35.30;25.60;;;;;;5095475;28;20398;-46
2022/06/27 09:54:36;;;;;;;2.33;1.80;;;35.10;25.90;;;;;;5095019;28;20520;-45
2022/06/27 09:57:03;;;;;;;6.50;2.27;;;35.00;25.90;;;;;;5094918;28;20394;-45
2022/06/27 09:59:29;;;;;;;3.10;2.00;;;34.90;24.70;;;;;;5095236;28;20489;-44
2022/06/27 10:01:57;;;;;;;2.47;2.07;;;34.70;25.60;;;;;;5095146;28;20806;-47
2022/06/27 10:04:28;;;;;;;3.00;1.80;;;34.70;26.10;;;;;;5093419;28;20973;-45
2022/06/27 10:06:58;;;;;;;3.17;1.60;;;34.70;25.90;;;;;;5094740;28;20400;-46
2022/06/27 10:09:25;;;;;;;2.30;1.90;;;34.80;24.80;;;;;;5094899;28;21010;-46
2022/06/27 10:12:22;;;;;;;3.10;1.90;;;34.90;25.50;;;;;;5094821;28;20924;-46
2022/06/27 10:15:12;;;;;;;2.60;1.70;;;35.10;25.60;;;;;;5094586;28;20445;-45
2022/06/27 10:17:52;;;;;;;2.50;2.00;;;35.20;25.70;;;;;;5094440;28;20818;-45
2022/06/27 10:20:38;;;;;;;4.23;2.60;;;35.40;25.90;;;;;;5094673;28;20439;-46
2022/06/27 10:23:04;;;;;;;2.93;2.00;;;35.50;25.50;;;;;;5094623;28;20480;-44
2022/06/27 10:25:29;;;;;;;2.40;2.00;;;35.60;25.10;;;;;;5094529;28;20466;-46
2022/06/27 10:28:12;;;;;;;2.50;2.13;;;35.70;25.70;;;;;;5094610;28;20600;-45
2022/06/27 10:30:37;;;;;;;3.40;1.90;;;35.70;24.80;;;;;;5094481;28;20683;-45
2022/06/27 10:33:30;;;;;;;2.43;2.03;;;35.70;24.30;;;;;;5094495;28;20488;-45
2022/06/27 10:35:55;;;;;;;2.27;1.63;;;35.80;24.90;;;;;;5092139;28;20188;-45
2022/06/27 10:38:32;;;;;;;3.77;2.10;;;35.80;25.30;;;;;;5094185;28;20409;-46
2022/06/27 10:41:00;;;;;;;3.13;2.13;;;35.90;25.20;;;;;;5094230;28;20635;-46
2022/06/27 10:43:45;;;;;;;2.43;1.80;;;35.90;25.20;;;;;;5094217;28;20574;-46
2022/06/27 10:46:11;;;;;;;2.57;1.80;;;35.90;22.80;;;;;;5093949;28;20885;-44
2022/06/27 10:48:42;;;;;;;2.23;1.37;;;36.00;24.30;;;;;;5094130;28;20398;-45
2022/06/27 10:51:24;;;;;;;2.77;2.00;;;36.10;23.40;;;;;;5094121;28;20171;-45
2022/06/27 10:53:59;;;;;;;2.13;1.50;;;36.10;22.40;;;;;;5093974;28;20437;-45
2022/06/27 10:56:34;;;;;;;2.33;1.70;;;36.10;22.00;;;;;;5093667;28;20404;-44
2022/06/27 10:59:02;;;;;;;2.00;1.47;;;36.20;23.40;;;;;;5093915;28;20523;-44
2022/06/27 11:01:29;;;;;;;3.30;2.20;;;36.30;23.40;;;;;;5093881;28;20409;-45
2022/06/27 11:03:56;;;;;;;2.20;1.50;;;36.40;23.10;;;;;;5093640;28;20474;-45
2022/06/27 11:06:22;;;;;;;3.17;2.33;;;36.50;23.10;;;;;;5093619;28;20901;-45
2022/06/27 11:08:51;;;;;;;2.90;2.10;;;36.40;23.40;;;;;;5094018;28;20425;-45
2022/06/27 11:11:26;;;;;;;2.50;2.00;;;36.60;24.00;;;;;;5093960;28;20421;-45
2022/06/27 11:13:57;;;;;;;3.00;1.80;;;36.80;24.00;;;;;;5093401;28;20448;-45
2022/06/27 11:16:33;;;;;;;2.07;1.63;;;36.90;23.00;;;;;;5093152;28;20482;-47
2022/06/27 11:21:51;;;;;;;2.07;1.60;;;37.00;23.50;;;;;;5093767;28;20413;-47
2022/06/27 11:24:17;;;;;;;2.27;1.80;;;37.10;23.60;;;;;;5093549;28;20481;-44
2022/06/27 11:26:50;;;;;;;2.60;1.90;;;37.10;22.30;;;;;;5093347;28;20441;-46
2022/06/27 11:32:04;;;;;;;3.13;1.97;;;37.10;22.40;;;;;;5093507;28;20384;-44
2022/06/27 11:34:33;;;;;;;2.43;2.10;;;37.10;23.00;;;;;;5093100;28;20421;-44
2022/06/27 11:37:00;;;;;;;2.60;1.60;;;37.10;23.20;;;;;;5093250;28;20794;-44
2022/06/27 11:39:28;;;;;;;2.10;1.40;;;37.10;23.30;;;;;;5093266;28;20410;-45
2022/06/27 11:41:56;;;;;;;3.13;1.87;;;37.20;23.00;;;;;;5093282;28;20485;-44
2022/06/27 11:44:23;;;;;;;2.60;1.97;;;37.40;23.60;;;;;;5092899;28;21025;-44
2022/06/27 11:46:49;;;;;;;2.83;1.70;;;37.40;22.80;;;;;;5092829;28;20410;-45
2022/06/27 11:49:18;;;;;;;2.33;1.90;;;37.60;22.50;;;;;;5092886;28;20477;-45
2022/06/27 11:51:49;;;;;;;3.80;2.07;;;37.70;22.20;;;;;;5092861;28;20909;-45
2022/06/27 11:54:18;;;;;;;2.30;1.60;;;37.70;22.50;;;;;;5092859;28;20422;-44
2022/06/27 11:56:46;;;;;;;3.10;2.13;;;37.80;22.50;;;;;;5092674;28;20402;-48
2022/06/27 11:59:15;;;;;;;3.23;1.90;;;37.90;22.90;;;;;;5092705;28;20770;-46
2022/06/27 12:01:58;;;;;;;2.57;1.90;;;37.90;22.90;;;;;;5092741;28;20430;-44
2022/06/27 12:04:29;;;;;;;2.20;1.37;;;37.90;22.20;;;;;;5092629;28;20449;-48
2022/06/27 12:06:57;;;;;;;4.43;2.20;;;38.00;22.60;;;;;;5092717;28;20398;-45
2022/06/27 12:09:25;;;;;;;3.13;1.90;;;37.90;22.80;;;;;;5092653;28;20402;-45
2022/06/27 12:11:54;;;;;;;4.57;2.57;;;37.90;23.00;;;;;;5092646;28;20820;-44
2022/06/27 12:14:21;;;;;;;2.43;2.00;;;38.00;23.00;;;;;;5092439;28;20453;-44
2022/06/27 12:16:52;;;;;;;2.03;1.50;;;38.00;23.00;;;;;;5092271;28;20512;-45
2022/06/27 12:19:18;;;;;;;2.47;1.70;;;38.10;23.00;;;;;;5092500;28;20386;-46
2022/06/27 12:21:45;;;;;;;2.27;1.93;;;38.10;22.60;;;;;;5092512;28;20905;-44
2022/06/27 12:24:12;;;;;;;2.70;2.23;;;38.10;22.80;;;;;;5092156;28;20976;-44
2022/06/27 12:26:38;;;;;;;2.07;1.70;;;38.10;23.30;;;;;;5091972;28;20493;-45
2022/06/27 12:29:05;;;;;;;3.00;2.30;;;38.20;23.00;;;;;;5092254;28;20523;-45
2022/06/27 12:31:35;;;;;;;3.37;1.90;;;38.20;22.80;;;;;;5092340;28;20394;-47
2022/06/27 12:34:02;;;;;;;4.30;3.13;;;38.20;22.90;;;;;;5091809;28;20430;-47
2022/06/27 12:36:30;;;;;;;2.23;1.80;;;38.30;22.60;;;;;;5092021;28;20406;-45
2022/06/27 12:38:56;;;;;;;2.43;2.20;;;38.30;22.80;;;;;;5092108;28;20909;-47
2022/06/27 12:41:22;;;;;;;3.23;2.27;;;38.30;22.80;;;;;;5092033;28;20500;-45
2022/06/27 12:43:48;;;;;;;2.57;2.10;;;38.40;21.30;;;;;;5092256;28;20532;-48
2022/06/27 12:46:17;;;;;;;2.43;2.23;;;38.40;20.90;;;;;;5092169;28;20172;-47
2022/06/27 12:48:43;;;;;;;2.27;1.70;;;38.30;22.30;;;;;;5092327;28;20404;-46
2022/06/27 12:51:09;;;;;;;2.23;1.70;;;38.40;22.60;;;;;;5092130;28;20512;-46
2022/06/27 12:53:36;;;;;;;2.00;1.77;;;38.50;21.70;;;;;;5092254;28;20434;-46
2022/06/27 12:56:03;;;;;;;2.20;1.93;;;38.60;21.60;;;;;;5092056;28;20417;-47
2022/06/27 12:58:30;;;;;;;2.47;1.87;;;38.40;21.80;;;;;;5092203;28;20781;-47